sensor_id;sensor_type;location;lat;lon;timestamp;P1;durP1;ratioP1;P2;durP2;ratioP2
56005;SDS011;41888;44.696;10.522;2024-03-02T00:00:28;19.77;;;10.95;;
56005;SDS011;41888;44.696;10.522;2024-03-02T00:02:54;22.15;;;10.57;;
56005;SDS011;41888;44.696;10.522;2024-03-02T00:05:21;21.38;;;10.75;;
56005;SDS011;41888;44.696;10.522;2024-03-02T00:07:52;17.25;;;10.82;;
56005;SDS011;41888;44.696;10.522;2024-03-02T00:10:25;16.05;;;9.73;;
56005;SDS011;41888;44.696;10.522;2024-03-02T00:13:12;18.58;;;9.85;;
56005;SDS011;41888;44.696;10.522;2024-03-02T00:18:13;19.77;;;11.17;;
56005;SDS011;41888;44.696;10.522;2024-03-02T00:20:43;20.20;;;11.88;;
56005;SDS011;41888;44.696;10.522;2024-03-02T00:23:10;19.85;;;11.25;;
56005;SDS011;41888;44.696;10.522;2024-03-02T00:33:41;23.90;;;12.02;;
56005;SDS011;41888;44.696;10.522;2024-03-02T00:36:13;27.42;;;12.65;;
56005;SDS011;41888;44.696;10.522;2024-03-02T00:38:46;25.13;;;13.07;;
56005;SDS011;41888;44.696;10.522;2024-03-02T00:41:24;25.40;;;12.73;;
56005;SDS011;41888;44.696;10.522;2024-03-02T00:44:00;21.48;;;11.68;;
56005;SDS011;41888;44.696;10.522;2024-03-02T00:46:38;28.75;;;12.02;;
56005;SDS011;41888;44.696;10.522;2024-03-02T00:51:50;27.25;;;12.70;;
56005;SDS011;41888;44.696;10.522;2024-03-02T00:54:21;28.73;;;13.73;;
56005;SDS011;41888;44.696;10.522;2024-03-02T00:56:52;28.73;;;14.33;;
56005;SDS011;41888;44.696;10.522;2024-03-02T00:59:20;35.10;;;14.18;;
56005;SDS011;41888;44.696;10.522;2024-03-02T01:01:48;28.77;;;14.90;;
56005;SDS011;41888;44.696;10.522;2024-03-02T01:04:14;27.67;;;14.38;;
56005;SDS011;41888;44.696;10.522;2024-03-02T01:06:42;35.28;;;14.68;;
56005;SDS011;41888;44.696;10.522;2024-03-02T01:09:08;31.05;;;13.98;;
56005;SDS011;41888;44.696;10.522;2024-03-02T01:11:34;29.58;;;14.63;;
56005;SDS011;41888;44.696;10.522;2024-03-02T01:14:01;33.83;;;14.77;;
56005;SDS011;41888;44.696;10.522;2024-03-02T01:16:27;26.85;;;13.90;;
56005;SDS011;41888;44.696;10.522;2024-03-02T01:18:53;26.02;;;13.68;;
56005;SDS011;41888;44.696;10.522;2024-03-02T01:21:19;26.73;;;13.25;;
56005;SDS011;41888;44.696;10.522;2024-03-02T01:23:45;31.63;;;15.15;;
56005;SDS011;41888;44.696;10.522;2024-03-02T01:26:12;30.35;;;15.00;;
56005;SDS011;41888;44.696;10.522;2024-03-02T01:28:38;31.45;;;15.20;;
56005;SDS011;41888;44.696;10.522;2024-03-02T01:31:04;28.67;;;16.23;;
56005;SDS011;41888;44.696;10.522;2024-03-02T01:33:30;34.97;;;15.52;;
56005;SDS011;41888;44.696;10.522;2024-03-02T01:35:56;30.25;;;13.82;;
56005;SDS011;41888;44.696;10.522;2024-03-02T01:38:23;26.05;;;13.18;;
56005;SDS011;41888;44.696;10.522;2024-03-02T01:40:49;30.63;;;15.13;;
56005;SDS011;41888;44.696;10.522;2024-03-02T01:43:15;27.17;;;13.55;;
56005;SDS011;41888;44.696;10.522;2024-03-02T01:45:41;33.47;;;14.18;;
56005;SDS011;41888;44.696;10.522;2024-03-02T01:48:08;29.80;;;15.25;;
56005;SDS011;41888;44.696;10.522;2024-03-02T01:50:34;29.95;;;14.45;;
56005;SDS011;41888;44.696;10.522;2024-03-02T01:53:01;31.48;;;14.98;;
56005;SDS011;41888;44.696;10.522;2024-03-02T01:55:30;29.00;;;14.80;;
56005;SDS011;41888;44.696;10.522;2024-03-02T01:57:56;31.45;;;14.88;;
56005;SDS011;41888;44.696;10.522;2024-03-02T02:00:23;33.20;;;16.63;;
56005;SDS011;41888;44.696;10.522;2024-03-02T02:02:51;27.80;;;15.20;;
56005;SDS011;41888;44.696;10.522;2024-03-02T02:05:17;29.45;;;15.68;;
56005;SDS011;41888;44.696;10.522;2024-03-02T02:07:44;26.65;;;14.95;;
56005;SDS011;41888;44.696;10.522;2024-03-02T02:10:10;32.50;;;15.57;;
56005;SDS011;41888;44.696;10.522;2024-03-02T02:12:36;27.05;;;15.63;;
56005;SDS011;41888;44.696;10.522;2024-03-02T02:15:04;33.13;;;15.95;;
56005;SDS011;41888;44.696;10.522;2024-03-02T02:17:51;29.38;;;14.70;;
56005;SDS011;41888;44.696;10.522;2024-03-02T02:20:17;38.55;;;15.13;;
56005;SDS011;41888;44.696;10.522;2024-03-02T02:25:23;38.75;;;18.65;;
56005;SDS011;41888;44.696;10.522;2024-03-02T02:27:50;36.45;;;18.02;;
56005;SDS011;41888;44.696;10.522;2024-03-02T02:30:20;41.03;;;18.13;;
56005;SDS011;41888;44.696;10.522;2024-03-02T02:32:47;39.72;;;19.05;;
56005;SDS011;41888;44.696;10.522;2024-03-02T02:35:13;33.08;;;16.40;;
56005;SDS011;41888;44.696;10.522;2024-03-02T02:37:40;35.08;;;17.67;;
56005;SDS011;41888;44.696;10.522;2024-03-02T02:40:08;40.47;;;16.67;;
56005;SDS011;41888;44.696;10.522;2024-03-02T02:42:34;32.08;;;16.50;;
56005;SDS011;41888;44.696;10.522;2024-03-02T02:45:00;28.85;;;16.20;;
56005;SDS011;41888;44.696;10.522;2024-03-02T02:47:27;26.67;;;15.75;;
56005;SDS011;41888;44.696;10.522;2024-03-02T02:49:54;35.03;;;16.77;;
56005;SDS011;41888;44.696;10.522;2024-03-02T02:52:21;28.92;;;16.00;;
56005;SDS011;41888;44.696;10.522;2024-03-02T02:54:47;31.83;;;16.83;;
56005;SDS011;41888;44.696;10.522;2024-03-02T02:57:13;32.78;;;16.70;;
56005;SDS011;41888;44.696;10.522;2024-03-02T02:59:39;33.22;;;15.90;;
56005;SDS011;41888;44.696;10.522;2024-03-02T03:02:05;33.50;;;18.77;;
56005;SDS011;41888;44.696;10.522;2024-03-02T03:04:31;33.97;;;17.92;;
56005;SDS011;41888;44.696;10.522;2024-03-02T03:06:58;33.58;;;17.95;;
56005;SDS011;41888;44.696;10.522;2024-03-02T03:09:24;34.47;;;18.13;;
56005;SDS011;41888;44.696;10.522;2024-03-02T03:11:50;37.33;;;19.73;;
56005;SDS011;41888;44.696;10.522;2024-03-02T03:14:16;32.08;;;17.30;;
56005;SDS011;41888;44.696;10.522;2024-03-02T03:16:42;36.70;;;18.58;;
56005;SDS011;41888;44.696;10.522;2024-03-02T03:19:10;36.03;;;18.83;;
56005;SDS011;41888;44.696;10.522;2024-03-02T03:21:37;43.22;;;20.10;;
56005;SDS011;41888;44.696;10.522;2024-03-02T03:24:03;35.33;;;20.77;;
56005;SDS011;41888;44.696;10.522;2024-03-02T03:26:30;34.58;;;19.50;;
56005;SDS011;41888;44.696;10.522;2024-03-02T03:28:56;32.10;;;21.10;;
56005;SDS011;41888;44.696;10.522;2024-03-02T03:31:23;33.50;;;19.00;;
56005;SDS011;41888;44.696;10.522;2024-03-02T03:33:49;40.55;;;19.25;;
56005;SDS011;41888;44.696;10.522;2024-03-02T03:36:16;39.00;;;19.45;;
56005;SDS011;41888;44.696;10.522;2024-03-02T03:38:42;37.40;;;20.00;;
56005;SDS011;41888;44.696;10.522;2024-03-02T03:41:08;35.47;;;19.80;;
56005;SDS011;41888;44.696;10.522;2024-03-02T03:43:35;38.17;;;20.25;;
56005;SDS011;41888;44.696;10.522;2024-03-02T03:46:01;38.28;;;20.95;;
56005;SDS011;41888;44.696;10.522;2024-03-02T03:48:28;40.08;;;20.92;;
56005;SDS011;41888;44.696;10.522;2024-03-02T03:50:56;39.35;;;21.02;;
56005;SDS011;41888;44.696;10.522;2024-03-02T03:53:22;43.85;;;22.55;;
56005;SDS011;41888;44.696;10.522;2024-03-02T03:55:49;46.45;;;22.05;;
56005;SDS011;41888;44.696;10.522;2024-03-02T03:58:15;42.17;;;21.83;;
56005;SDS011;41888;44.696;10.522;2024-03-02T04:00:43;45.47;;;23.50;;
56005;SDS011;41888;44.696;10.522;2024-03-02T04:03:10;45.33;;;23.00;;
56005;SDS011;41888;44.696;10.522;2024-03-02T04:05:36;43.58;;;23.02;;
56005;SDS011;41888;44.696;10.522;2024-03-02T04:08:03;43.33;;;22.58;;
56005;SDS011;41888;44.696;10.522;2024-03-02T04:10:29;43.55;;;22.45;;
56005;SDS011;41888;44.696;10.522;2024-03-02T04:12:56;48.80;;;22.67;;
56005;SDS011;41888;44.696;10.522;2024-03-02T04:15:22;45.53;;;23.65;;
56005;SDS011;41888;44.696;10.522;2024-03-02T04:17:48;46.47;;;22.08;;
56005;SDS011;41888;44.696;10.522;2024-03-02T04:20:15;39.17;;;21.63;;
56005;SDS011;41888;44.696;10.522;2024-03-02T04:22:41;39.17;;;21.85;;
56005;SDS011;41888;44.696;10.522;2024-03-02T04:25:07;35.63;;;19.75;;
56005;SDS011;41888;44.696;10.522;2024-03-02T04:27:34;34.17;;;20.17;;
56005;SDS011;41888;44.696;10.522;2024-03-02T04:30:01;33.45;;;18.92;;
56005;SDS011;41888;44.696;10.522;2024-03-02T04:32:28;40.80;;;19.25;;
56005;SDS011;41888;44.696;10.522;2024-03-02T04:34:54;36.08;;;17.95;;
56005;SDS011;41888;44.696;10.522;2024-03-02T04:37:21;32.33;;;17.10;;
56005;SDS011;41888;44.696;10.522;2024-03-02T04:39:47;30.77;;;17.70;;
56005;SDS011;41888;44.696;10.522;2024-03-02T04:42:13;33.35;;;17.88;;
56005;SDS011;41888;44.696;10.522;2024-03-02T04:44:39;42.28;;;18.45;;
56005;SDS011;41888;44.696;10.522;2024-03-02T04:47:05;36.10;;;17.35;;
56005;SDS011;41888;44.696;10.522;2024-03-02T04:49:32;35.25;;;16.73;;
56005;SDS011;41888;44.696;10.522;2024-03-02T04:51:58;34.67;;;18.80;;
56005;SDS011;41888;44.696;10.522;2024-03-02T04:54:24;37.70;;;18.73;;
56005;SDS011;41888;44.696;10.522;2024-03-02T04:56:51;38.85;;;18.10;;
56005;SDS011;41888;44.696;10.522;2024-03-02T04:59:17;37.03;;;17.80;;
56005;SDS011;41888;44.696;10.522;2024-03-02T05:01:44;31.17;;;16.88;;
56005;SDS011;41888;44.696;10.522;2024-03-02T05:04:10;33.05;;;17.23;;
56005;SDS011;41888;44.696;10.522;2024-03-02T05:06:37;31.83;;;16.63;;
56005;SDS011;41888;44.696;10.522;2024-03-02T05:09:07;30.17;;;16.27;;
56005;SDS011;41888;44.696;10.522;2024-03-02T05:11:33;32.63;;;16.05;;
56005;SDS011;41888;44.696;10.522;2024-03-02T05:14:05;32.08;;;17.02;;
56005;SDS011;41888;44.696;10.522;2024-03-02T05:16:35;32.53;;;16.90;;
56005;SDS011;41888;44.696;10.522;2024-03-02T05:19:05;35.80;;;16.27;;
56005;SDS011;41888;44.696;10.522;2024-03-02T05:21:32;28.45;;;16.70;;
56005;SDS011;41888;44.696;10.522;2024-03-02T05:23:59;30.48;;;14.98;;
56005;SDS011;41888;44.696;10.522;2024-03-02T05:26:25;27.88;;;15.52;;
56005;SDS011;41888;44.696;10.522;2024-03-02T05:28:51;27.27;;;14.38;;
56005;SDS011;41888;44.696;10.522;2024-03-02T05:31:18;32.88;;;14.52;;
56005;SDS011;41888;44.696;10.522;2024-03-02T05:33:44;36.08;;;16.65;;
56005;SDS011;41888;44.696;10.522;2024-03-02T05:36:10;27.65;;;14.63;;
56005;SDS011;41888;44.696;10.522;2024-03-02T05:38:36;23.20;;;13.25;;
56005;SDS011;41888;44.696;10.522;2024-03-02T05:41:03;31.55;;;13.85;;
56005;SDS011;41888;44.696;10.522;2024-03-02T05:43:29;33.92;;;15.07;;
56005;SDS011;41888;44.696;10.522;2024-03-02T05:45:56;30.00;;;14.77;;
56005;SDS011;41888;44.696;10.522;2024-03-02T05:48:22;26.35;;;14.32;;
56005;SDS011;41888;44.696;10.522;2024-03-02T05:50:48;32.15;;;15.40;;
56005;SDS011;41888;44.696;10.522;2024-03-02T05:53:14;28.42;;;13.43;;
56005;SDS011;41888;44.696;10.522;2024-03-02T05:55:40;28.45;;;13.65;;
56005;SDS011;41888;44.696;10.522;2024-03-02T05:58:06;25.23;;;13.95;;
56005;SDS011;41888;44.696;10.522;2024-03-02T06:01:02;22.02;;;12.45;;
56005;SDS011;41888;44.696;10.522;2024-03-02T06:03:29;31.23;;;14.18;;
56005;SDS011;41888;44.696;10.522;2024-03-02T06:05:56;23.67;;;13.00;;
56005;SDS011;41888;44.696;10.522;2024-03-02T06:08:22;28.17;;;12.93;;
56005;SDS011;41888;44.696;10.522;2024-03-02T06:10:48;23.25;;;11.85;;
56005;SDS011;41888;44.696;10.522;2024-03-02T06:13:14;28.77;;;12.43;;
56005;SDS011;41888;44.696;10.522;2024-03-02T06:15:40;25.27;;;13.27;;
56005;SDS011;41888;44.696;10.522;2024-03-02T06:18:07;21.88;;;12.73;;
56005;SDS011;41888;44.696;10.522;2024-03-02T06:20:33;25.85;;;11.93;;
56005;SDS011;41888;44.696;10.522;2024-03-02T06:22:59;23.70;;;12.23;;
56005;SDS011;41888;44.696;10.522;2024-03-02T06:25:25;22.50;;;11.00;;
56005;SDS011;41888;44.696;10.522;2024-03-02T06:27:52;23.92;;;11.50;;
56005;SDS011;41888;44.696;10.522;2024-03-02T06:30:18;25.92;;;12.80;;
56005;SDS011;41888;44.696;10.522;2024-03-02T06:32:44;22.20;;;11.70;;
56005;SDS011;41888;44.696;10.522;2024-03-02T06:35:10;23.48;;;11.32;;
56005;SDS011;41888;44.696;10.522;2024-03-02T06:37:38;23.98;;;12.38;;
56005;SDS011;41888;44.696;10.522;2024-03-02T06:40:07;25.10;;;11.30;;
56005;SDS011;41888;44.696;10.522;2024-03-02T06:42:34;26.40;;;12.48;;
56005;SDS011;41888;44.696;10.522;2024-03-02T06:45:01;20.25;;;10.27;;
56005;SDS011;41888;44.696;10.522;2024-03-02T06:47:28;22.10;;;10.65;;
56005;SDS011;41888;44.696;10.522;2024-03-02T06:49:55;19.98;;;9.50;;
56005;SDS011;41888;44.696;10.522;2024-03-02T06:52:22;19.92;;;10.45;;
56005;SDS011;41888;44.696;10.522;2024-03-02T06:54:48;20.75;;;11.73;;
56005;SDS011;41888;44.696;10.522;2024-03-02T06:57:14;19.25;;;10.10;;
56005;SDS011;41888;44.696;10.522;2024-03-02T06:59:42;21.58;;;9.45;;
56005;SDS011;41888;44.696;10.522;2024-03-02T07:02:08;18.15;;;9.38;;
56005;SDS011;41888;44.696;10.522;2024-03-02T07:04:34;22.77;;;12.18;;
56005;SDS011;41888;44.696;10.522;2024-03-02T07:07:00;22.70;;;11.50;;
56005;SDS011;41888;44.696;10.522;2024-03-02T07:09:26;22.17;;;11.70;;
56005;SDS011;41888;44.696;10.522;2024-03-02T07:11:52;20.15;;;10.68;;
56005;SDS011;41888;44.696;10.522;2024-03-02T07:14:19;18.33;;;9.98;;
56005;SDS011;41888;44.696;10.522;2024-03-02T07:16:45;20.58;;;10.90;;
56005;SDS011;41888;44.696;10.522;2024-03-02T07:19:11;18.70;;;10.15;;
56005;SDS011;41888;44.696;10.522;2024-03-02T07:21:37;23.45;;;11.73;;
56005;SDS011;41888;44.696;10.522;2024-03-02T07:24:04;19.27;;;10.50;;
56005;SDS011;41888;44.696;10.522;2024-03-02T07:26:31;19.95;;;10.55;;
56005;SDS011;41888;44.696;10.522;2024-03-02T07:28:57;22.27;;;10.15;;
56005;SDS011;41888;44.696;10.522;2024-03-02T07:31:23;18.67;;;10.23;;
56005;SDS011;41888;44.696;10.522;2024-03-02T07:33:50;18.33;;;9.88;;
56005;SDS011;41888;44.696;10.522;2024-03-02T07:36:16;19.58;;;9.85;;
56005;SDS011;41888;44.696;10.522;2024-03-02T07:38:44;17.05;;;8.45;;
56005;SDS011;41888;44.696;10.522;2024-03-02T07:41:10;19.92;;;10.05;;
56005;SDS011;41888;44.696;10.522;2024-03-02T07:43:37;19.30;;;10.55;;
56005;SDS011;41888;44.696;10.522;2024-03-02T07:46:03;21.55;;;10.75;;
56005;SDS011;41888;44.696;10.522;2024-03-02T07:48:29;18.80;;;10.02;;
56005;SDS011;41888;44.696;10.522;2024-03-02T07:50:56;17.63;;;10.27;;
56005;SDS011;41888;44.696;10.522;2024-03-02T07:53:22;19.05;;;10.38;;
56005;SDS011;41888;44.696;10.522;2024-03-02T07:55:48;18.35;;;10.20;;
56005;SDS011;41888;44.696;10.522;2024-03-02T07:58:14;16.98;;;10.40;;
56005;SDS011;41888;44.696;10.522;2024-03-02T08:00:41;21.52;;;9.45;;
56005;SDS011;41888;44.696;10.522;2024-03-02T08:03:07;20.15;;;10.70;;
56005;SDS011;41888;44.696;10.522;2024-03-02T08:05:36;19.38;;;10.68;;
56005;SDS011;41888;44.696;10.522;2024-03-02T08:08:03;23.63;;;10.70;;
56005;SDS011;41888;44.696;10.522;2024-03-02T08:10:30;16.48;;;9.50;;
56005;SDS011;41888;44.696;10.522;2024-03-02T08:12:56;17.80;;;10.18;;
56005;SDS011;41888;44.696;10.522;2024-03-02T08:15:22;19.77;;;10.40;;
56005;SDS011;41888;44.696;10.522;2024-03-02T08:17:49;21.80;;;13.05;;
56005;SDS011;41888;44.696;10.522;2024-03-02T08:20:15;20.42;;;11.73;;
56005;SDS011;41888;44.696;10.522;2024-03-02T08:22:41;19.42;;;11.00;;
56005;SDS011;41888;44.696;10.522;2024-03-02T08:25:07;26.60;;;13.27;;
56005;SDS011;41888;44.696;10.522;2024-03-02T08:27:34;21.90;;;12.40;;
56005;SDS011;41888;44.696;10.522;2024-03-02T08:30:01;21.92;;;13.05;;
56005;SDS011;41888;44.696;10.522;2024-03-02T08:32:31;21.63;;;11.95;;
56005;SDS011;41888;44.696;10.522;2024-03-02T08:34:57;24.20;;;11.80;;
56005;SDS011;41888;44.696;10.522;2024-03-02T08:37:23;22.63;;;12.48;;
56005;SDS011;41888;44.696;10.522;2024-03-02T08:39:49;26.30;;;14.20;;
56005;SDS011;41888;44.696;10.522;2024-03-02T08:42:15;24.20;;;13.40;;
56005;SDS011;41888;44.696;10.522;2024-03-02T08:44:42;30.50;;;17.13;;
56005;SDS011;41888;44.696;10.522;2024-03-02T08:47:08;32.33;;;17.52;;
56005;SDS011;41888;44.696;10.522;2024-03-02T08:49:35;31.98;;;15.07;;
56005;SDS011;41888;44.696;10.522;2024-03-02T08:52:01;36.08;;;17.00;;
56005;SDS011;41888;44.696;10.522;2024-03-02T08:54:27;30.88;;;15.68;;
56005;SDS011;41888;44.696;10.522;2024-03-02T08:56:53;32.85;;;16.13;;
56005;SDS011;41888;44.696;10.522;2024-03-02T08:59:19;35.42;;;17.60;;
56005;SDS011;41888;44.696;10.522;2024-03-02T09:01:45;39.67;;;18.83;;
56005;SDS011;41888;44.696;10.522;2024-03-02T09:04:12;37.10;;;18.58;;
56005;SDS011;41888;44.696;10.522;2024-03-02T09:06:38;48.85;;;18.92;;
56005;SDS011;41888;44.696;10.522;2024-03-02T09:09:04;36.28;;;19.40;;
56005;SDS011;41888;44.696;10.522;2024-03-02T09:11:31;41.33;;;20.55;;
56005;SDS011;41888;44.696;10.522;2024-03-02T09:13:58;43.55;;;20.80;;
56005;SDS011;41888;44.696;10.522;2024-03-02T09:16:24;38.95;;;20.00;;
56005;SDS011;41888;44.696;10.522;2024-03-02T09:18:55;41.58;;;20.48;;
56005;SDS011;41888;44.696;10.522;2024-03-02T09:21:22;40.65;;;19.98;;
56005;SDS011;41888;44.696;10.522;2024-03-02T09:23:48;38.45;;;19.70;;
56005;SDS011;41888;44.696;10.522;2024-03-02T09:26:14;41.50;;;20.65;;
56005;SDS011;41888;44.696;10.522;2024-03-02T09:28:43;36.63;;;19.60;;
56005;SDS011;41888;44.696;10.522;2024-03-02T09:31:09;42.17;;;19.70;;
56005;SDS011;41888;44.696;10.522;2024-03-02T09:33:37;33.55;;;17.67;;
56005;SDS011;41888;44.696;10.522;2024-03-02T09:36:04;31.05;;;15.98;;
56005;SDS011;41888;44.696;10.522;2024-03-02T09:38:33;28.20;;;15.75;;
56005;SDS011;41888;44.696;10.522;2024-03-02T09:41:00;26.02;;;14.75;;
56005;SDS011;41888;44.696;10.522;2024-03-02T09:43:27;26.35;;;14.63;;
56005;SDS011;41888;44.696;10.522;2024-03-02T09:45:54;25.50;;;14.25;;
56005;SDS011;41888;44.696;10.522;2024-03-02T09:48:20;22.27;;;12.30;;
56005;SDS011;41888;44.696;10.522;2024-03-02T09:50:46;17.80;;;11.02;;
56005;SDS011;41888;44.696;10.522;2024-03-02T09:53:12;14.23;;;10.07;;
56005;SDS011;41888;44.696;10.522;2024-03-02T09:55:40;14.10;;;8.98;;
56005;SDS011;41888;44.696;10.522;2024-03-02T09:58:11;13.23;;;7.97;;
56005;SDS011;41888;44.696;10.522;2024-03-02T10:00:37;14.07;;;9.00;;
56005;SDS011;41888;44.696;10.522;2024-03-02T10:03:04;13.93;;;9.00;;
56005;SDS011;41888;44.696;10.522;2024-03-02T10:05:30;17.90;;;12.32;;
56005;SDS011;41888;44.696;10.522;2024-03-02T10:08:00;22.48;;;13.00;;
56005;SDS011;41888;44.696;10.522;2024-03-02T10:10:37;16.45;;;10.55;;
56005;SDS011;41888;44.696;10.522;2024-03-02T10:13:11;21.30;;;13.60;;
56005;SDS011;41888;44.696;10.522;2024-03-02T10:15:39;19.42;;;13.00;;
56005;SDS011;41888;44.696;10.522;2024-03-02T10:18:12;20.20;;;13.25;;
56005;SDS011;41888;44.696;10.522;2024-03-02T10:20:39;16.27;;;10.80;;
56005;SDS011;41888;44.696;10.522;2024-03-02T10:23:13;17.08;;;10.98;;
56005;SDS011;41888;44.696;10.522;2024-03-02T10:25:41;16.95;;;10.50;;
56005;SDS011;41888;44.696;10.522;2024-03-02T10:28:08;18.65;;;10.48;;
56005;SDS011;41888;44.696;10.522;2024-03-02T10:30:34;16.65;;;11.38;;
56005;SDS011;41888;44.696;10.522;2024-03-02T10:33:01;17.13;;;11.38;;
56005;SDS011;41888;44.696;10.522;2024-03-02T10:35:30;15.77;;;10.70;;
56005;SDS011;41888;44.696;10.522;2024-03-02T10:37:58;17.73;;;9.82;;
56005;SDS011;41888;44.696;10.522;2024-03-02T10:40:28;17.38;;;10.25;;
56005;SDS011;41888;44.696;10.522;2024-03-02T10:42:54;12.93;;;9.57;;
56005;SDS011;41888;44.696;10.522;2024-03-02T10:45:21;16.15;;;9.57;;
56005;SDS011;41888;44.696;10.522;2024-03-02T10:47:48;13.88;;;9.05;;
56005;SDS011;41888;44.696;10.522;2024-03-02T10:50:16;12.32;;;8.65;;
56005;SDS011;41888;44.696;10.522;2024-03-02T10:52:42;12.07;;;9.07;;
56005;SDS011;41888;44.696;10.522;2024-03-02T10:55:09;12.95;;;8.57;;
56005;SDS011;41888;44.696;10.522;2024-03-02T10:57:56;13.73;;;9.43;;
56005;SDS011;41888;44.696;10.522;2024-03-02T11:00:26;13.63;;;9.02;;
56005;SDS011;41888;44.696;10.522;2024-03-02T11:03:04;11.68;;;8.77;;
56005;SDS011;41888;44.696;10.522;2024-03-02T11:05:31;11.30;;;8.70;;
56005;SDS011;41888;44.696;10.522;2024-03-02T11:08:07;12.52;;;9.65;;
56005;SDS011;41888;44.696;10.522;2024-03-02T11:10:41;12.95;;;9.73;;
56005;SDS011;41888;44.696;10.522;2024-03-02T11:13:16;14.82;;;9.65;;
56005;SDS011;41888;44.696;10.522;2024-03-02T11:15:49;13.23;;;8.63;;
56005;SDS011;41888;44.696;10.522;2024-03-02T11:18:20;10.75;;;8.30;;
56005;SDS011;41888;44.696;10.522;2024-03-02T11:20:47;16.05;;;9.57;;
56005;SDS011;41888;44.696;10.522;2024-03-02T11:23:13;12.82;;;9.18;;
56005;SDS011;41888;44.696;10.522;2024-03-02T11:25:41;10.18;;;8.20;;
56005;SDS011;41888;44.696;10.522;2024-03-02T11:28:07;11.48;;;8.43;;
56005;SDS011;41888;44.696;10.522;2024-03-02T11:33:08;12.70;;;8.60;;
56005;SDS011;41888;44.696;10.522;2024-03-02T11:35:35;12.25;;;9.02;;
56005;SDS011;41888;44.696;10.522;2024-03-02T11:38:12;13.18;;;8.52;;
56005;SDS011;41888;44.696;10.522;2024-03-02T11:40:39;11.68;;;7.25;;
56005;SDS011;41888;44.696;10.522;2024-03-02T11:43:06;9.82;;;6.80;;
56005;SDS011;41888;44.696;10.522;2024-03-02T11:45:33;11.15;;;7.60;;
56005;SDS011;41888;44.696;10.522;2024-03-02T11:48:05;12.40;;;8.23;;
56005;SDS011;41888;44.696;10.522;2024-03-02T11:53:05;11.13;;;8.25;;
56005;SDS011;41888;44.696;10.522;2024-03-02T11:55:35;10.85;;;7.65;;
56005;SDS011;41888;44.696;10.522;2024-03-02T11:58:05;11.10;;;7.75;;
56005;SDS011;41888;44.696;10.522;2024-03-02T12:00:32;31.33;;;19.95;;
56005;SDS011;41888;44.696;10.522;2024-03-02T12:03:00;10.48;;;7.50;;
56005;SDS011;41888;44.696;10.522;2024-03-02T12:05:28;10.20;;;7.78;;
56005;SDS011;41888;44.696;10.522;2024-03-02T12:07:59;10.07;;;7.15;;
56005;SDS011;41888;44.696;10.522;2024-03-02T12:10:27;12.00;;;8.50;;
56005;SDS011;41888;44.696;10.522;2024-03-02T12:15:28;11.88;;;7.85;;
56005;SDS011;41888;44.696;10.522;2024-03-02T12:17:56;9.20;;;7.35;;
56005;SDS011;41888;44.696;10.522;2024-03-02T12:20:23;10.30;;;7.15;;
56005;SDS011;41888;44.696;10.522;2024-03-02T12:22:51;9.70;;;6.70;;
56005;SDS011;41888;44.696;10.522;2024-03-02T12:25:19;9.15;;;6.47;;
56005;SDS011;41888;44.696;10.522;2024-03-02T12:27:46;6.38;;;5.72;;
56005;SDS011;41888;44.696;10.522;2024-03-02T12:30:18;7.18;;;5.80;;
56005;SDS011;41888;44.696;10.522;2024-03-02T12:32:45;6.70;;;5.03;;
56005;SDS011;41888;44.696;10.522;2024-03-02T12:35:13;34.80;;;27.23;;
56005;SDS011;41888;44.696;10.522;2024-03-02T12:37:49;6.53;;;4.85;;
56005;SDS011;41888;44.696;10.522;2024-03-02T12:40:17;6.25;;;4.85;;
56005;SDS011;41888;44.696;10.522;2024-03-02T12:42:44;8.88;;;6.10;;
56005;SDS011;41888;44.696;10.522;2024-03-02T12:45:12;7.03;;;5.70;;
56005;SDS011;41888;44.696;10.522;2024-03-02T12:47:39;8.02;;;5.82;;
56005;SDS011;41888;44.696;10.522;2024-03-02T12:50:06;14.30;;;8.82;;
56005;SDS011;41888;44.696;10.522;2024-03-02T12:52:33;7.00;;;5.43;;
56005;SDS011;41888;44.696;10.522;2024-03-02T12:55:00;7.70;;;5.07;;
56005;SDS011;41888;44.696;10.522;2024-03-02T12:57:29;6.22;;;5.38;;
56005;SDS011;41888;44.696;10.522;2024-03-02T12:59:57;5.68;;;5.00;;
56005;SDS011;41888;44.696;10.522;2024-03-02T13:02:34;7.68;;;5.80;;
56005;SDS011;41888;44.696;10.522;2024-03-02T13:05:01;5.00;;;4.35;;
56005;SDS011;41888;44.696;10.522;2024-03-02T13:07:27;10.48;;;6.20;;
56005;SDS011;41888;44.696;10.522;2024-03-02T13:09:55;5.45;;;4.40;;
56005;SDS011;41888;44.696;10.522;2024-03-02T13:12:22;6.28;;;4.70;;
56005;SDS011;41888;44.696;10.522;2024-03-02T13:14:51;5.80;;;4.30;;
56005;SDS011;41888;44.696;10.522;2024-03-02T13:17:18;6.90;;;4.90;;
56005;SDS011;41888;44.696;10.522;2024-03-02T13:19:52;6.68;;;4.75;;
56005;SDS011;41888;44.696;10.522;2024-03-02T13:22:18;5.63;;;4.28;;
56005;SDS011;41888;44.696;10.522;2024-03-02T13:24:45;6.22;;;3.88;;
56005;SDS011;41888;44.696;10.522;2024-03-02T13:27:11;5.15;;;3.53;;
56005;SDS011;41888;44.696;10.522;2024-03-02T13:29:37;4.72;;;3.53;;
56005;SDS011;41888;44.696;10.522;2024-03-02T13:32:04;5.43;;;3.95;;
56005;SDS011;41888;44.696;10.522;2024-03-02T13:34:30;6.60;;;3.47;;
56005;SDS011;41888;44.696;10.522;2024-03-02T13:36:56;3.38;;;2.90;;
56005;SDS011;41888;44.696;10.522;2024-03-02T13:39:22;4.90;;;3.58;;
56005;SDS011;41888;44.696;10.522;2024-03-02T13:41:48;6.30;;;4.32;;
56005;SDS011;41888;44.696;10.522;2024-03-02T13:44:22;5.45;;;3.58;;
56005;SDS011;41888;44.696;10.522;2024-03-02T13:46:48;4.85;;;3.45;;
56005;SDS011;41888;44.696;10.522;2024-03-02T13:49:16;4.30;;;3.20;;
56005;SDS011;41888;44.696;10.522;2024-03-02T13:51:42;5.53;;;3.17;;
56005;SDS011;41888;44.696;10.522;2024-03-02T13:54:10;5.10;;;3.90;;
56005;SDS011;41888;44.696;10.522;2024-03-02T13:56:37;3.65;;;3.22;;
56005;SDS011;41888;44.696;10.522;2024-03-02T13:59:04;7.18;;;4.45;;
56005;SDS011;41888;44.696;10.522;2024-03-02T14:01:31;4.43;;;3.58;;
56005;SDS011;41888;44.696;10.522;2024-03-02T14:03:58;5.18;;;3.83;;
56005;SDS011;41888;44.696;10.522;2024-03-02T14:06:24;5.55;;;4.22;;
56005;SDS011;41888;44.696;10.522;2024-03-02T14:08:53;7.15;;;4.15;;
56005;SDS011;41888;44.696;10.522;2024-03-02T14:11:19;4.63;;;3.28;;
56005;SDS011;41888;44.696;10.522;2024-03-02T14:13:45;4.40;;;3.42;;
56005;SDS011;41888;44.696;10.522;2024-03-02T14:16:18;4.30;;;3.50;;
56005;SDS011;41888;44.696;10.522;2024-03-02T14:18:45;6.28;;;4.25;;
56005;SDS011;41888;44.696;10.522;2024-03-02T14:21:11;4.25;;;3.80;;
56005;SDS011;41888;44.696;10.522;2024-03-02T14:23:38;5.35;;;4.38;;
56005;SDS011;41888;44.696;10.522;2024-03-02T14:26:05;6.63;;;4.10;;
56005;SDS011;41888;44.696;10.522;2024-03-02T14:28:31;5.28;;;4.60;;
56005;SDS011;41888;44.696;10.522;2024-03-02T14:30:58;6.68;;;4.68;;
56005;SDS011;41888;44.696;10.522;2024-03-02T14:33:25;5.40;;;4.20;;
56005;SDS011;41888;44.696;10.522;2024-03-02T14:35:52;5.00;;;3.95;;
56005;SDS011;41888;44.696;10.522;2024-03-02T14:38:19;4.25;;;3.85;;
56005;SDS011;41888;44.696;10.522;2024-03-02T14:40:45;5.82;;;3.95;;